• Join FlightAware (Why Join?)
  • Login
  • US Flag 
05:39AM EDT


 

Airport Tracker/Info


-or-


 

Live Flight TrackerFlight Track Log ✈ N606FT ✈ 06-Sep-2013 ✈ KFMY - KFMY

Flight Track Log - Related Links

Times and Time Zones

All times are in EDT time to prevent confusion due to time zone crossing. See the N606FT flight status page for this flight to view local times or setup timezone preferences in your user account.

Time Position Orientation Groundspeed Altitude Reporting Facility
EDT Latitude Longitude Course Direction KTS MPH feet Rate Location/Type
02:25PM 27.1502 -81.4898 31° Northeast  Level Estimated
02:26PM 27.1872 -81.4652 31° Northeast  Level Estimated
02:27PM 27.2241 -81.4405 31° Northeast  Level Estimated
02:28PM 27.2611 -81.4158 31° Northeast  Level Estimated
02:29PM 27.2980 -81.3911 31° Northeast  Level Estimated
02:29PM 26.8472 -81.5942 31° Northeast 109 125 3,600  Level Miami Center
02:30PM 27.3350 -81.3664 31° Northeast  Level Estimated
02:30PM 26.8728 -81.5767 31° Northeast 104 120 3,600  Level Miami Center
02:31PM 27.3719 -81.3417 31° Northeast  Level Estimated
02:31PM 26.9022 -81.5686 14° North 104 120 3,600  Level Miami Center
02:32PM 27.4088 -81.3169 31° Northeast  Level Estimated
02:32PM 26.9258 -81.5533 30° Northeast 99 114 3,600  Level Miami Center
02:33PM 27.4458 -81.2922 31° Northeast  Level Estimated
02:33PM 26.9492 -81.5403 27° Northeast 101 116 3,500  Level Miami Center
02:34PM 27.4827 -81.2674 31° Northeast  Level Estimated
02:34PM 26.9686 -81.5222 40° Northeast 101 116 3,500  Level Miami Center
02:35PM 26.9942 -81.5069 28° Northeast 96 110 3,500  Level Miami Center
02:36PM 27.0194 -81.4942 24° Northeast 96 110 3,500  Level Miami Center
02:37PM 27.0450 -81.4833 21° North 96 110 3,500  Level Miami Center
02:38PM 27.0681 -81.4750 18° North 96 110 3,600 -60 Climbing Miami Center
02:39PM 27.0972 -81.4761 358° North 91 105 3,400 -60 Descending Miami Center
02:40PM 27.1111 -81.5000 303° West 86 99 3,500 120 Climbing Miami Center
02:41PM 27.0886 -81.4897 158° South 23 26 3,700 120 Climbing Miami Center
02:42PM 27.0683 -81.4703 140° Southeast 54 62 3,800 120 Climbing Miami Center
02:43PM 27.0481 -81.4461 133° Southeast 85 98 4,000 60 Climbing Miami Center
02:44PM 27.0533 -81.4139 80° East 85 98 4,000  Level Miami Center
02:45PM 27.0564 -81.3836 84° East 95 109 4,100  Climbing Miami Center
02:46PM 27.0556 -81.3464 91° East 102 117 4,000  Descending Miami Center
02:47PM 27.0564 -81.3161 88° East 97 112 4,100  Climbing Miami Center
02:48PM 27.0575 -81.2833 88° East 108 124 4,000 60 Descending Miami Center
02:49PM 27.0644 -81.2603 71° East 95 109 4,300 -60 Climbing Miami Center
02:50PM 27.0861 -81.2331 48° Northeast 87 100 3,900 -420 Descending Miami Center
02:51PM 27.1036 -81.2036 56° Northeast 103 119 3,500 -300 Descending Miami Center
02:52PM 27.1189 -81.1808 53° Northeast 108 124 3,400 -120 Descending Miami Center
02:53PM 27.1364 -81.1533 54° Northeast 108 124 3,300 -60 Descending Miami Center
02:54PM 27.1603 -81.1264 45° Northeast 108 124 3,300  Level Miami Center
02:55PM 27.1778 -81.1014 52° Northeast 108 124 3,400 120 Climbing Miami Center
02:56PM 27.1992 -81.0811 40° Northeast 98 113 3,600  Climbing Miami Center
02:57PM 27.2206 -81.0608 40° Northeast 98 113 3,500 -120 Descending Miami Center
02:57PM 27.2206 -81.0608 40° Northeast 98 113 3,500 -300 Level Miami Center
02:58PM 27.2444 -81.0361 43° Northeast 98 113 3,200 -300 Descending Miami Center
02:58PM 27.2444 -81.0361 43° Northeast 98 113 3,200 -240 Level Miami Center
02:59PM 27.2700 -81.0136 38° Northeast 105 121 3,000 -240 Descending Miami Center
02:59PM 27.2700 -81.0136 38° Northeast 105 121 3,000  Level Miami Center
03:00PM 27.2956 -80.9958 32° Northeast 105 121 3,000  Level Miami Center
03:00PM 27.2956 -80.9958 32° Northeast 105 121 3,000 -120 Level Miami Center
03:01PM 27.3169 -80.9803 33° Northeast 105 121 2,900 -120 Descending Miami Center
03:01PM 27.3169 -80.9803 33° Northeast 105 121 2,900 60 Level Miami Center
03:02PM 27.3403 -80.9622 35° Northeast 105 121 3,000 60 Climbing Miami Center
03:02PM 27.3403 -80.9622 35° Northeast 105 121 3,000  Level Miami Center
03:03PM 27.3597 -80.9397 46° Northeast 105 121 3,000  Level Miami Center
03:03PM 27.3597 -80.9397 46° Northeast 105 121 3,000 60 Level Miami Center
03:04PM 27.3772 -80.9169 49° Northeast 99 114 3,100 60 Climbing Miami Center
03:04PM 27.3772 -80.9169 49° Northeast 99 114 3,100 -120 Level Miami Center
03:05PM 27.3925 -80.8894 58° Northeast 94 108 3,000 -120 Descending Miami Center
03:05PM 27.3925 -80.8894 58° Northeast 94 108 3,000  Level Miami Center
03:06PM 27.4100 -80.8642 52° Northeast 94 108 3,000  Level Miami Center
03:06PM 27.4100 -80.8642 52° Northeast 94 108 3,000  Level Miami Center
03:07PM 27.4314 -80.8439 40° Northeast 99 114 3,000  Level Miami Center
03:07PM 27.4314 -80.8439 40° Northeast 99 114 3,000  Level Miami Center
03:08PM 27.4467 -80.8186 56° Northeast 99 114 3,000  Level Miami Center
03:08PM 27.4467 -80.8186 56° Northeast 99 114 3,000  Level Miami Center
03:09PM 27.4661 -80.7936 49° Northeast 104 120 3,000  Level Miami Center
03:09PM 27.4661 -80.7936 49° Northeast 104 120 3,000  Level Miami Center
03:10PM 27.4939 -80.7736 33° Northeast 104 120 3,000  Level Miami Center
03:10PM 27.4939 -80.7736 33° Northeast 104 120 3,000  Level Miami Center
03:11PM 27.5192 -80.7650 17° North 104 120 3,000  Level Miami Center
03:11PM 27.5192 -80.7650 17° North 104 120 3,000 60 Level Miami Center
03:12PM 27.5483 -80.7614 North 98 113 3,100 60 Climbing Miami Center
03:12PM 27.5483 -80.7614 North 98 113 3,100 -240 Level Miami Center
03:13PM 27.5778 -80.7531 14° North 98 113 2,900 -240 Descending Miami Center
03:13PM 27.5778 -80.7531 14° North 98 113 2,900 -120 Level Miami Center
03:14PM 27.6075 -80.7422 18° North 103 119 2,800 -120 Descending Miami Center
03:14PM 27.6075 -80.7422 18° North 103 119 2,800 60 Level Miami Center
03:15PM 27.6286 -80.7336 20° North 103 119 2,900 60 Climbing Miami Center
03:15PM 27.6286 -80.7336 20° North 103 119 2,900 -120 Level Miami Center
03:16PM 27.6561 -80.7133 33° Northeast 97 112 2,800 -120 Descending Miami Center
03:16PM 27.6561 -80.7133 33° Northeast 97 112 2,800 60 Level Miami Center
03:17PM 27.6833 -80.7072 11° North 97 112 2,900 60 Climbing Miami Center
03:17PM 27.6833 -80.7072 11° North 97 112 2,900 -180 Level Miami Center
03:20PM 27.7500 -80.7000 North 114 131 2,500 -180 Descending Orlando TRACON
03:20PM 27.7500 -80.7000 North 114 131 2,500 -240 Level Orlando TRACON
03:21PM 27.7833 -80.6833 24° Northeast 112 129 2,300 -240 Descending Orlando TRACON
03:21PM 27.7833 -80.6833 24° Northeast 112 129 2,300  Level Orlando TRACON
03:22PM 27.8167 -80.6833 360° North 107 123 2,300  Level Orlando TRACON
03:22PM 27.8167 -80.6833 360° North 107 123 2,300  Level Orlando TRACON
03:23PM 27.8500 -80.6833 360° North 104 120 2,300  Level Orlando TRACON
03:23PM 27.8500 -80.6833 360° North 104 120 2,300 60 Level Orlando TRACON
03:24PM 27.8667 -80.6833 360° North 94 108 2,400 60 Climbing Orlando TRACON
03:24PM 27.8667 -80.6833 360° North 94 108 2,400 60 Level Orlando TRACON
03:25PM 27.9000 -80.6667 24° Northeast 94 108 2,500 60 Climbing Orlando TRACON
03:25PM 27.9000 -80.6667 24° Northeast 94 108 2,500 -240 Level Orlando TRACON
03:26PM 27.9167 -80.6667 360° North 119 137 2,300 -240 Descending Orlando TRACON
03:26PM 27.9167 -80.6667 360° North 119 137 2,300 60 Level Orlando TRACON
03:27PM 27.9500 -80.6667 360° North 104 120 2,400 60 Climbing Orlando TRACON
03:27PM 27.9500 -80.6667 360° North 104 120 2,400 180 Level Orlando TRACON
03:28PM 27.9833 -80.6667 360° North 104 120 2,600 180 Climbing Orlando TRACON
03:28PM 27.9833 -80.6667 360° North 104 120 2,600 300 Level Orlando TRACON
03:29PM 28.0000 -80.6667 360° North 99 114 2,900 300 Climbing Orlando TRACON
03:29PM 28.0000 -80.6667 360° North 99 114 2,900 360 Level Orlando TRACON
03:30PM 28.0333 -80.6667 360° North 85 98 3,400 360 Climbing Orlando TRACON
03:30PM 28.0333 -80.6667 360° North 85 98 3,400 60 Level Orlando TRACON
03:31PM 28.0667 -80.6667 360° North 100 115 3,500 60 Climbing Orlando TRACON
03:31PM 28.0667 -80.6667 360° North 100 115 3,500 60 Level Orlando TRACON
03:32PM 28.0833 -80.6667 360° North 105 121 3,600 60 Climbing Orlando TRACON
03:32PM 28.0833 -80.6667 360° North 105 121 3,600 60 Level Orlando TRACON
03:33PM 28.1167 -80.6833 336° Northwest 100 115 3,700 60 Climbing Orlando TRACON
03:33PM 28.1167 -80.6833 336° Northwest 100 115 3,700 -660 Level Orlando TRACON
03:34PM 28.1500 -80.6833 360° North 113 130 3,000 -660 Descending Orlando TRACON
03:34PM 28.1500 -80.6833 360° North 113 130 3,000  Level Orlando TRACON
03:36PM 28.1968 -80.7000 North  Level FlightAware Approximate
03:43PM 28.3333 -80.6833 North  Level FlightAware Approximate
03:44PM 28.3071 -80.7014 North  Level Estimated
03:45PM 28.3333 -80.6833 North  Level FlightAware Approximate
03:46PM 28.3071 -80.7014 North  Level Estimated
03:47PM 28.3333 -80.6833 North  Level FlightAware Approximate
03:48PM 28.3071 -80.7014 North  Level Estimated
03:49PM 28.3333 -80.6833 North  Level FlightAware Approximate